首页
METAR-TAF:

METAR-TAF

机场 :

Kake, 阿拉斯加州, 美国

纬度: 56-57N, 经度: 133-54W, 海拔: 52米

当前天气观测

该预报发布于2小时和36分钟前的09:56 UTC
风速3节,风向北转东北
温度 6°C
湿度 70%
气压 1012 hPa
能見度: 16.1公里
天空无云

METAR: PAFE 190956Z AUTO 02003KT 10SM CLR 06/01 A2989 RMK AO2 SLP135 T00560006

时间: 04:32 (12:32 UTC)


TAF: 丢失

超过4000个机场的气象观测和天气预报(METAR&TAF报告)。

可查询的气象台以黄色和红色小点在地图上表示。

将鼠标移到小点上方,可查看气象台名称。

然后点击查看天气观测和预报。

如需切换地图:点击带黑十字的绿色按钮放大地图;点击带横线的绿色按钮缩小地图;或者点击绿色箭头查看邻近地区的地图。


METAR-TAF: